Seattle, Washington
Traffic Map
Current Weather Conditions
Seattle, Washington
Clear
Clear
57°
Feels Like: 57°
Wind Chill: 57° Ceiling: Unl
Heat Index: 57° Visibility: 10mi
Dew Point: 49° Wind: 0mph
Humidity: 74% Direction: ° ()
Pressure: 30.05in Gusts: 0mph
Raw Report DataKBFI 290553Z 00000KT 10SM CLR 14/09 A3005 RMK AO2 SLP174 T01390094 10200 20139 53002 $
Traffic Incident Summary
Active as of:
Severity:
Category:
InformationThere was an issue retrieving the traffic information for this location. Please try a different location or try again shortly.
Advertisements
Track Severe Weather on mobile